Time;durP1;ratioP1;P1;durP2;ratioP2;P2;SDS_P1;SDS_P2;PMS_P1;PMS_P2;Temp;Humidity;BMP_temperature;BMP_pressure;BME280_temperature;BME280_humidity;BME280_pressure;Samples;Min_cycle;Max_cycle;Signal;HPM_P1;HPM_P2
2022/07/21 00:00:57;;;;;;;44.03;37.75;;;27.60;44.90;;;;;;6185939;23;20424;-69
2022/07/21 00:03:23;;;;;;;50.08;39.92;;;27.60;44.40;;;;;;6185865;23;20019;-69
2022/07/21 00:05:49;;;;;;;48.50;39.88;;;27.60;44.60;;;;;;6185169;23;20009;-69
2022/07/21 00:08:15;;;;;;;53.17;43.38;;;27.50;45.30;;;;;;6185024;23;20416;-69
2022/07/21 00:10:40;;;;;;;53.63;43.15;;;27.50;45.40;;;;;;6185125;23;20329;-70
2022/07/21 00:13:06;;;;;;;56.97;46.78;;;27.40;45.10;;;;;;6185638;23;20076;-70
2022/07/21 00:15:32;;;;;;;49.80;44.17;;;27.40;44.90;;;;;;6185725;23;20008;-69
2022/07/21 00:17:58;;;;;;;51.30;43.65;;;27.30;44.70;;;;;;6185456;23;20009;-69
2022/07/21 00:20:27;;;;;;;51.17;40.67;;;27.30;44.90;;;;;;6185146;23;20008;-68
2022/07/21 00:22:54;;;;;;;44.90;39.90;;;27.20;45.60;;;;;;6185692;23;20020;-70
2022/07/21 00:25:20;;;;;;;53.53;46.42;;;27.20;45.80;;;;;;6185401;23;20001;-69
2022/07/21 00:27:46;;;;;;;68.13;57.22;;;27.20;45.70;;;;;;6185698;23;20028;-69
2022/07/21 00:30:13;;;;;;;69.93;61.40;;;27.20;46.50;;;;;;6185806;23;20363;-69
2022/07/21 00:32:38;;;;;;;76.57;62.67;;;27.20;47.10;;;;;;6185364;23;20013;-69
2022/07/21 00:35:06;;;;;;;81.68;69.03;;;27.10;47.00;;;;;;6185228;23;20001;-68
2022/07/21 00:37:31;;;;;;;80.57;69.78;;;27.10;47.00;;;;;;6185276;23;20005;-69
2022/07/21 00:39:57;;;;;;;80.85;71.65;;;27.00;47.20;;;;;;6185412;23;20001;-68
2022/07/21 00:42:26;;;;;;;82.25;70.40;;;27.00;47.00;;;;;;6185234;23;20430;-69
2022/07/21 00:44:52;;;;;;;79.10;67.90;;;26.90;47.30;;;;;;6185240;23;19997;-68
2022/07/21 00:47:25;;;;;;;75.30;66.88;;;26.90;47.60;;;;;;6185119;23;20005;-69
2022/07/21 00:49:52;;;;;;;73.15;65.05;;;26.90;47.20;;;;;;6185348;23;20371;-69
2022/07/21 00:52:18;;;;;;;73.57;65.68;;;26.90;46.40;;;;;;6185330;23;20084;-68
2022/07/21 00:54:44;;;;;;;73.20;64.78;;;26.90;46.30;;;;;;6185181;23;20005;-69
2022/07/21 00:57:11;;;;;;;75.03;67.05;;;26.80;46.20;;;;;;6185208;23;20436;-69
2022/07/21 00:59:37;;;;;;;78.13;69.72;;;26.80;46.20;;;;;;6181469;23;20043;-69
2022/07/21 01:02:03;;;;;;;75.80;66.63;;;26.80;46.30;;;;;;6182110;23;20507;-68
2022/07/21 01:04:28;;;;;;;74.63;64.63;;;26.70;46.30;;;;;;6183128;23;20004;-69
2022/07/21 01:06:55;;;;;;;83.03;63.58;;;26.80;46.30;;;;;;6184993;23;20005;-68
2022/07/21 01:09:21;;;;;;;72.20;63.22;;;26.70;46.40;;;;;;6185068;23;19997;-69
2022/07/21 01:11:47;;;;;;;75.05;63.55;;;26.60;47.20;;;;;;6185158;23;20092;-68
2022/07/21 01:14:15;;;;;;;71.22;59.00;;;26.60;47.60;;;;;;6184802;23;20036;-69
2022/07/21 01:16:43;;;;;;;67.47;60.13;;;26.50;47.50;;;;;;6185003;23;20005;-69
2022/07/21 01:19:09;;;;;;;73.57;64.50;;;26.50;47.10;;;;;;6185452;23;20005;-69
2022/07/21 01:21:44;;;;;;;67.93;60.70;;;26.50;47.10;;;;;;6184779;23;20008;-69
2022/07/21 01:24:11;;;;;;;69.22;60.72;;;26.50;47.20;;;;;;6185053;23;20068;-69
2022/07/21 01:26:41;;;;;;;70.63;62.75;;;26.50;47.10;;;;;;6184987;23;20432;-69
2022/07/21 01:29:08;;;;;;;70.78;61.08;;;26.40;47.20;;;;;;6184936;23;20076;-68
2022/07/21 01:31:34;;;;;;;70.50;61.30;;;26.30;47.50;;;;;;6184924;23;20335;-68
2022/07/21 01:34:00;;;;;;;72.65;62.92;;;26.30;48.30;;;;;;6187090;23;20439;-69
2022/07/21 01:36:26;;;;;;;74.95;62.92;;;26.20;47.80;;;;;;6186727;23;20001;-69
2022/07/21 01:41:35;;;;;;;69.78;60.28;;;26.20;47.10;;;;;;6185962;23;20091;-69
2022/07/21 01:44:04;;;;;;;71.90;62.67;;;26.20;47.30;;;;;;6186330;23;20009;-68
2022/07/21 01:46:33;;;;;;;71.28;62.50;;;26.10;47.40;;;;;;6185815;23;20009;-68
2022/07/21 01:48:58;;;;;;;73.05;61.58;;;26.10;47.20;;;;;;6186806;23;20329;-69
2022/07/21 01:51:25;;;;;;;70.30;62.08;;;26.10;47.10;;;;;;6186975;23;20009;-68
2022/07/21 01:53:51;;;;;;;69.68;60.67;;;26.10;47.40;;;;;;6186788;23;20001;-69
2022/07/21 01:56:23;;;;;;;71.53;59.97;;;26.00;47.60;;;;;;6186762;23;20009;-68
2022/07/21 01:58:50;;;;;;;69.22;61.47;;;26.00;47.70;;;;;;6187075;23;20009;-69
2022/07/21 02:01:19;;;;;;;68.13;60.03;;;25.90;48.30;;;;;;6186881;23;20008;-68
2022/07/21 02:03:46;;;;;;;68.78;60.22;;;26.00;47.80;;;;;;6186961;23;20040;-69
2022/07/21 02:06:12;;;;;;;64.05;56.92;;;25.90;47.80;;;;;;6187373;23;20008;-69
2022/07/21 02:08:38;;;;;;;64.05;57.17;;;25.90;48.90;;;;;;6186630;23;20009;-68
2022/07/21 02:11:05;;;;;;;63.85;56.85;;;25.80;47.80;;;;;;6186427;23;20047;-69
2022/07/21 02:13:31;;;;;;;66.20;58.92;;;25.90;47.60;;;;;;6186423;23;20017;-68
2022/07/21 02:15:57;;;;;;;65.00;57.85;;;25.90;47.50;;;;;;6186854;23;20001;-68
2022/07/21 02:18:22;;;;;;;66.43;56.67;;;25.90;47.40;;;;;;6186654;23;19999;-69
2022/07/21 02:20:48;;;;;;;65.72;58.35;;;26.00;47.20;;;;;;6186710;23;20012;-69
2022/07/21 02:23:18;;;;;;;66.72;58.22;;;26.00;47.20;;;;;;6186670;23;20080;-68
2022/07/21 02:25:45;;;;;;;70.95;59.60;;;26.00;47.20;;;;;;6187116;23;20032;-69
2022/07/21 02:28:11;;;;;;;72.80;58.47;;;25.90;47.30;;;;;;6186861;23;20084;-69
2022/07/21 02:30:37;;;;;;;68.72;61.25;;;25.90;47.30;;;;;;6186631;23;20052;-69
2022/07/21 02:33:03;;;;;;;74.18;60.22;;;25.90;47.50;;;;;;6186677;23;20012;-68
2022/07/21 02:35:29;;;;;;;66.13;56.88;;;25.80;47.50;;;;;;6186429;23;20332;-69
2022/07/21 02:37:55;;;;;;;63.17;56.40;;;25.80;47.50;;;;;;6186452;23;20008;-69
2022/07/21 02:40:21;;;;;;;66.97;58.58;;;25.80;47.50;;;;;;6186929;23;20012;-68
2022/07/21 02:42:47;;;;;;;63.65;56.95;;;25.80;47.70;;;;;;6186675;23;20001;-69
2022/07/21 02:45:13;;;;;;;61.70;53.75;;;25.70;47.70;;;;;;6186091;23;20008;-69
2022/07/21 02:48:09;;;;;;;63.42;53.75;;;25.80;47.80;;;;;;6186433;23;20081;-69
2022/07/21 02:50:37;;;;;;;63.25;51.45;;;25.80;48.20;;;;;;6168254;23;20005;-69
2022/07/21 02:53:05;;;;;;;68.30;52.88;;;25.70;47.40;;;;;;6186725;23;20100;-69
2022/07/21 02:55:31;;;;;;;62.08;51.33;;;25.70;47.50;;;;;;6186302;23;20005;-69
2022/07/21 02:58:16;;;;;;;56.08;49.55;;;25.70;47.60;;;;;;6186357;23;20028;-69
2022/07/21 03:00:44;;;;;;;53.88;47.85;;;25.70;47.20;;;;;;6186424;23;20328;-69
2022/07/21 03:03:10;;;;;;;53.38;47.63;;;25.70;47.20;;;;;;6186396;23;20027;-68
2022/07/21 03:05:37;;;;;;;55.58;47.00;;;25.50;47.20;;;;;;6186139;23;20453;-69
2022/07/21 03:08:04;;;;;;;59.38;46.72;;;25.50;47.60;;;;;;6186100;23;20001;-69
2022/07/21 03:10:31;;;;;;;52.70;47.08;;;25.50;48.40;;;;;;6186428;23;20005;-69
2022/07/21 03:12:56;;;;;;;53.40;45.63;;;25.40;48.70;;;;;;6186401;23;20005;-69
2022/07/21 03:15:22;;;;;;;52.92;47.05;;;25.40;48.80;;;;;;6186082;23;20054;-69
2022/07/21 03:17:48;;;;;;;52.72;46.63;;;25.40;48.50;;;;;;6186409;23;20025;-68
2022/07/21 03:20:14;;;;;;;52.50;46.97;;;25.40;48.00;;;;;;6186196;23;20004;-68
2022/07/21 03:22:40;;;;;;;55.13;46.97;;;25.40;47.90;;;;;;6186501;23;20008;-69
2022/07/21 03:25:06;;;;;;;52.53;46.22;;;25.40;48.00;;;;;;6186107;23;20072;-69
2022/07/21 03:27:35;;;;;;;60.03;47.40;;;25.30;48.00;;;;;;6186193;23;20001;-69
2022/07/21 03:30:03;;;;;;;55.70;46.15;;;25.30;48.20;;;;;;6185879;23;20471;-68
2022/07/21 03:32:29;;;;;;;56.42;46.97;;;25.30;48.30;;;;;;6186409;23;20017;-69
2022/07/21 03:34:55;;;;;;;52.83;46.95;;;25.20;48.50;;;;;;6185982;23;20002;-69
2022/07/21 03:37:20;;;;;;;55.40;46.30;;;25.20;48.30;;;;;;6186114;23;20009;-69
2022/07/21 03:39:46;;;;;;;52.67;44.65;;;25.20;48.30;;;;;;6185716;23;19997;-68
2022/07/21 03:42:12;;;;;;;52.53;45.17;;;25.20;49.10;;;;;;6185855;23;20068;-69
2022/07/21 03:44:37;;;;;;;53.95;45.55;;;25.10;49.80;;;;;;6186090;23;20001;-68
2022/07/21 03:47:03;;;;;;;52.72;43.17;;;25.10;49.50;;;;;;6186025;23;20006;-69
2022/07/21 03:49:29;;;;;;;55.47;43.05;;;25.20;48.70;;;;;;6185651;23;20005;-68
2022/07/21 03:51:55;;;;;;;53.30;41.53;;;25.20;48.90;;;;;;6185720;23;20016;-69
2022/07/21 03:54:20;;;;;;;49.65;40.80;;;25.20;49.30;;;;;;6185838;23;20373;-69
2022/07/21 03:56:46;;;;;;;71.65;44.28;;;25.10;50.00;;;;;;6185722;23;20048;-69
2022/07/21 03:59:11;;;;;;;55.80;42.55;;;25.10;50.50;;;;;;6185623;23;20023;-68
2022/07/21 04:01:37;;;;;;;61.38;43.80;;;25.10;50.40;;;;;;6185640;23;20032;-68
2022/07/21 04:04:03;;;;;;;56.00;46.05;;;25.10;50.20;;;;;;6185916;23;20029;-68
2022/07/21 04:06:29;;;;;;;56.15;46.13;;;25.10;49.30;;;;;;6186174;23;20036;-69
2022/07/21 04:08:54;;;;;;;52.45;46.72;;;25.10;49.20;;;;;;6185753;23;20029;-69
2022/07/21 04:11:20;;;;;;;55.30;47.97;;;25.20;49.20;;;;;;6185797;23;20088;-69
2022/07/21 04:13:46;;;;;;;53.97;48.20;;;25.10;49.70;;;;;;6185371;23;20443;-69
2022/07/21 04:16:12;;;;;;;56.10;46.47;;;25.10;50.80;;;;;;6185806;23;20048;-68
2022/07/21 04:18:37;;;;;;;54.50;47.25;;;25.00;50.80;;;;;;6185684;23;20016;-69
2022/07/21 04:21:03;;;;;;;58.30;46.67;;;24.90;51.00;;;;;;6185639;23;20005;-69
2022/07/21 04:23:29;;;;;;;63.88;50.97;;;24.90;50.50;;;;;;6185673;23;20054;-68
2022/07/21 04:25:55;;;;;;;55.65;49.63;;;24.90;50.30;;;;;;6185466;23;20000;-68
2022/07/21 04:28:20;;;;;;;64.43;49.53;;;24.90;50.10;;;;;;6185578;23;20054;-69
2022/07/21 04:30:46;;;;;;;61.72;48.45;;;24.90;50.30;;;;;;6185847;23;20336;-68
2022/07/21 04:33:12;;;;;;;62.05;47.80;;;24.90;50.10;;;;;;6185702;23;20016;-69
2022/07/21 04:35:37;;;;;;;67.22;48.72;;;25.00;49.90;;;;;;6185698;23;19997;-68
2022/07/21 04:38:03;;;;;;;61.13;48.28;;;25.00;49.80;;;;;;6185090;23;20005;-68
2022/07/21 04:40:29;;;;;;;91.35;54.13;;;25.00;49.70;;;;;;6184040;23;20364;-68
2022/07/21 04:42:54;;;;;;;95.43;52.55;;;25.10;50.60;;;;;;6185568;23;20001;-68
2022/07/21 04:45:20;;;;;;;57.05;46.63;;;25.10;51.90;;;;;;6185585;23;20008;-68
2022/07/21 04:47:50;;;;;;;54.75;47.08;;;25.00;53.10;;;;;;6185273;23;20012;-69
2022/07/21 04:50:17;;;;;;;57.15;47.15;;;25.00;52.80;;;;;;6185428;23;20085;-68
2022/07/21 04:52:43;;;;;;;65.82;46.33;;;25.00;51.90;;;;;;6185474;23;20013;-71
2022/07/21 04:55:10;;;;;;;63.17;47.40;;;25.00;53.30;;;;;;6185837;23;20067;-68
2022/07/21 04:57:41;;;;;;;60.08;46.72;;;25.00;51.20;;;;;;6183466;23;20017;-71
2022/07/21 05:00:10;;;;;;;57.42;45.75;;;25.10;51.10;;;;;;6183197;23;19997;-68
2022/07/21 05:02:36;;;;;;;51.83;45.70;;;25.20;50.90;;;;;;6183523;23;20001;-71
2022/07/21 05:05:02;;;;;;;56.50;44.63;;;25.20;51.10;;;;;;6183844;23;20435;-68
2022/07/21 05:07:28;;;;;;;60.25;46.42;;;25.20;51.40;;;;;;6184232;23;20016;-68
2022/07/21 05:09:54;;;;;;;60.03;45.80;;;25.20;50.70;;;;;;6182893;23;20080;-68
2022/07/21 05:12:19;;;;;;;58.05;46.42;;;25.10;50.70;;;;;;6183749;23;20387;-71
2022/07/21 05:14:45;;;;;;;67.30;45.00;;;25.10;50.80;;;;;;6184585;23;20005;-69
2022/07/21 05:17:11;;;;;;;64.28;44.70;;;25.10;51.30;;;;;;6183992;23;20032;-68
2022/07/21 05:19:36;;;;;;;61.88;43.65;;;25.10;51.30;;;;;;6184905;23;20001;-68
2022/07/21 05:22:02;;;;;;;53.85;42.88;;;25.20;51.10;;;;;;6184712;23;20440;-69
2022/07/21 05:24:28;;;;;;;53.42;42.05;;;25.20;51.20;;;;;;6184790;23;20210;-72
2022/07/21 05:26:53;;;;;;;61.00;41.95;;;25.20;50.80;;;;;;6184330;23;20072;-69
2022/07/21 05:29:19;;;;;;;56.55;43.22;;;25.30;50.60;;;;;;6184510;23;20020;-68
2022/07/21 05:31:45;;;;;;;65.15;43.30;;;25.30;50.00;;;;;;6184509;23;20317;-68
2022/07/21 05:34:10;;;;;;;57.97;43.42;;;25.30;50.00;;;;;;6184369;23;20001;-69
2022/07/21 05:36:36;;;;;;;53.42;41.75;;;25.40;50.00;;;;;;6184925;23;20016;-68
2022/07/21 05:39:03;;;;;;;48.33;39.53;;;25.40;49.90;;;;;;6184454;23;20001;-68
2022/07/21 05:41:28;;;;;;;54.05;40.00;;;25.50;49.30;;;;;;6184496;23;20012;-68
2022/07/21 05:43:54;;;;;;;46.65;39.63;;;25.50;49.50;;;;;;6184664;23;20001;-68
2022/07/21 05:46:20;;;;;;;46.75;37.67;;;25.60;49.30;;;;;;6184477;23;20009;-68
2022/07/21 05:48:46;;;;;;;50.28;37.55;;;25.70;49.40;;;;;;6184087;23;20032;-68
2022/07/21 05:51:11;;;;;;;50.28;37.80;;;25.70;49.40;;;;;;6184047;23;20379;-68
2022/07/21 05:53:37;;;;;;;45.58;34.35;;;25.70;49.70;;;;;;6183714;23;20336;-69
2022/07/21 05:56:03;;;;;;;46.20;32.80;;;25.70;49.80;;;;;;6184102;23;20088;-71
2022/07/21 05:58:29;;;;;;;40.67;31.05;;;25.70;49.80;;;;;;6184379;23;20013;-72
2022/07/21 06:01:13;;;;;;;42.83;31.30;;;25.70;49.90;;;;;;6184656;23;20001;-71
2022/07/21 06:03:42;;;;;;;41.22;27.45;;;25.80;50.00;;;;;;6182445;23;20009;-70
2022/07/21 06:06:09;;;;;;;31.00;23.85;;;25.90;50.20;;;;;;6179216;23;20005;-71
2022/07/21 06:08:37;;;;;;;27.45;22.08;;;25.90;50.10;;;;;;6163042;23;20015;-71
2022/07/21 06:11:03;;;;;;;19.40;15.57;;;26.00;50.40;;;;;;6184378;23;20008;-70
2022/07/21 06:13:29;;;;;;;13.77;9.77;;;26.00;50.40;;;;;;6183817;23;20033;-69
2022/07/21 06:15:54;;;;;;;39.78;16.60;;;26.00;49.70;;;;;;6184231;23;20101;-71
2022/07/21 06:18:20;;;;;;;43.67;11.40;;;26.10;49.50;;;;;;6184315;23;20001;-71
2022/07/21 06:20:46;;;;;;;24.45;8.00;;;26.20;49.60;;;;;;6185620;23;20012;-70
2022/07/21 06:23:11;;;;;;;14.25;7.40;;;26.20;49.60;;;;;;6185713;23;20013;-68
2022/07/21 06:25:37;;;;;;;13.65;8.00;;;26.20;49.20;;;;;;6186261;23;20009;-69
2022/07/21 06:28:03;;;;;;;14.73;8.52;;;26.30;49.10;;;;;;6185714;23;20005;-70
2022/07/21 06:30:29;;;;;;;10.88;7.63;;;26.40;49.00;;;;;;6186583;23;20001;-68
2022/07/21 06:32:54;;;;;;;18.33;8.27;;;26.40;48.70;;;;;;6185405;23;20040;-70
2022/07/21 06:35:20;;;;;;;13.25;7.63;;;26.50;48.80;;;;;;6185257;23;20328;-69
2022/07/21 06:37:46;;;;;;;14.93;7.57;;;26.60;49.30;;;;;;6186322;23;20036;-69
2022/07/21 06:40:13;;;;;;;12.32;8.20;;;26.60;49.10;;;;;;6185817;23;20002;-69
2022/07/21 06:42:39;;;;;;;12.23;8.27;;;26.70;48.60;;;;;;6185003;23;20009;-70
2022/07/21 06:45:06;;;;;;;12.60;8.13;;;26.70;48.50;;;;;;6185082;23;20024;-69
2022/07/21 06:47:32;;;;;;;17.92;7.97;;;26.80;49.10;;;;;;6185774;23;20076;-69
2022/07/21 06:50:02;;;;;;;12.25;7.43;;;26.80;48.30;;;;;;6184720;23;20039;-70
2022/07/21 06:52:29;;;;;;;13.18;7.85;;;26.90;48.30;;;;;;6184535;23;20373;-70
2022/07/21 06:54:55;;;;;;;12.07;7.90;;;27.00;48.30;;;;;;6184686;23;20359;-70
2022/07/21 06:57:21;;;;;;;17.55;8.38;;;27.00;48.30;;;;;;6185120;23;20021;-67
2022/07/21 06:59:47;;;;;;;19.25;8.70;;;27.10;48.40;;;;;;6184333;23;20297;-70
2022/07/21 07:02:13;;;;;;;14.43;9.40;;;27.10;48.10;;;;;;6184601;23;20417;-70
2022/07/21 07:04:38;;;;;;;15.02;8.45;;;27.20;48.10;;;;;;6184965;23;20096;-69
2022/07/21 07:07:04;;;;;;;15.85;9.52;;;27.20;48.00;;;;;;6183953;23;20013;-69
2022/07/21 07:09:30;;;;;;;16.30;10.35;;;27.30;47.80;;;;;;6185493;23;20329;-69
2022/07/21 07:12:03;;;;;;;17.05;10.52;;;27.40;47.80;;;;;;6185193;23;20486;-69
2022/07/21 07:14:32;;;;;;;15.32;9.43;;;27.40;47.60;;;;;;6184745;23;20008;-68
2022/07/21 07:16:59;;;;;;;13.98;9.52;;;27.50;48.00;;;;;;6185220;23;20011;-68
2022/07/21 07:19:25;;;;;;;14.27;8.13;;;27.60;47.50;;;;;;6184903;23;20032;-70
2022/07/21 07:21:51;;;;;;;16.17;8.57;;;27.70;46.90;;;;;;6185296;23;20009;-69
2022/07/21 07:24:17;;;;;;;13.18;8.23;;;27.80;46.90;;;;;;6186009;23;20088;-70
2022/07/21 07:26:43;;;;;;;10.20;8.27;;;27.80;46.60;;;;;;6185863;23;20001;-69
2022/07/21 07:29:09;;;;;;;15.35;7.93;;;27.80;46.80;;;;;;6184192;23;20001;-69
2022/07/21 07:31:35;;;;;;;27.83;13.52;;;27.90;46.40;;;;;;6183636;23;20067;-68
2022/07/21 07:34:01;;;;;;;19.25;14.75;;;28.00;46.20;;;;;;6184309;23;19997;-68
2022/07/21 07:36:28;;;;;;;27.05;16.65;;;28.10;46.00;;;;;;6186089;23;20016;-69
2022/07/21 07:38:55;;;;;;;34.22;23.80;;;28.10;45.30;;;;;;6185811;23;20009;-69
2022/07/21 07:41:22;;;;;;;31.20;27.83;;;28.10;45.20;;;;;;6158173;23;20332;-69
2022/07/21 07:43:48;;;;;;;36.33;29.85;;;28.10;45.50;;;;;;6185450;23;20036;-69
2022/07/21 07:46:14;;;;;;;28.88;22.40;;;28.20;45.20;;;;;;6183624;23;20496;-70
2022/07/21 07:48:41;;;;;;;31.80;19.98;;;28.20;45.10;;;;;;6182459;23;20356;-70
2022/07/21 07:51:08;;;;;;;28.25;21.20;;;28.30;45.00;;;;;;6181284;23;20063;-70
2022/07/21 07:53:34;;;;;;;34.05;28.35;;;28.40;45.00;;;;;;6184282;23;20001;-69
2022/07/21 07:56:02;;;;;;;31.27;27.90;;;28.40;44.90;;;;;;6185103;23;20001;-69
2022/07/21 07:58:27;;;;;;;32.78;26.45;;;28.50;44.80;;;;;;6184808;23;20009;-70
2022/07/21 08:00:53;;;;;;;38.03;28.58;;;28.60;44.40;;;;;;6185503;23;20001;-69
2022/07/21 08:03:20;;;;;;;36.97;27.33;;;28.60;44.30;;;;;;6183153;23;20013;-70
2022/07/21 08:05:47;;;;;;;34.10;28.00;;;28.70;44.40;;;;;;6182261;23;20005;-69
2022/07/21 08:08:13;;;;;;;37.47;30.50;;;28.70;44.30;;;;;;6183840;23;20494;-70
2022/07/21 08:10:39;;;;;;;36.47;30.05;;;28.70;44.00;;;;;;6185699;23;20001;-70
2022/07/21 08:13:08;;;;;;;40.28;29.88;;;28.80;43.30;;;;;;6185614;23;20028;-70
2022/07/21 08:15:34;;;;;;;43.25;37.45;;;28.90;43.30;;;;;;6185367;23;20084;-69
2022/07/21 08:18:01;;;;;;;53.03;39.95;;;28.90;43.00;;;;;;6186072;23;20371;-70
2022/07/21 08:20:26;;;;;;;44.95;36.90;;;29.00;43.10;;;;;;6185360;23;20042;-69
2022/07/21 08:22:52;;;;;;;48.60;34.97;;;29.00;43.20;;;;;;6185403;23;20420;-71
2022/07/21 08:25:18;;;;;;;41.80;32.67;;;29.10;43.50;;;;;;6185455;23;20103;-68
2022/07/21 08:27:44;;;;;;;38.78;31.23;;;29.20;43.60;;;;;;6184941;23;20088;-69
2022/07/21 08:30:10;;;;;;;61.53;30.80;;;29.20;43.00;;;;;;6185684;23;20001;-70
2022/07/21 08:32:36;;;;;;;50.08;30.08;;;29.20;43.20;;;;;;6185298;23;20017;-78
2022/07/21 08:35:01;;;;;;;36.70;27.27;;;29.30;43.00;;;;;;6185785;23;20054;-77
2022/07/21 08:37:27;;;;;;;32.80;24.98;;;29.30;42.60;;;;;;6184351;23;20001;-76
2022/07/21 08:39:53;;;;;;;33.28;26.63;;;29.40;42.30;;;;;;6184404;23;20005;-72
2022/07/21 08:42:18;;;;;;;35.78;27.48;;;29.40;42.10;;;;;;6183731;23;20332;-77
2022/07/21 08:44:44;;;;;;;33.88;26.95;;;29.50;41.80;;;;;;6184251;23;20004;-80
2022/07/21 08:47:10;;;;;;;37.83;26.30;;;29.60;41.90;;;;;;6184343;23;20011;-78
2022/07/21 08:49:36;;;;;;;31.85;26.73;;;29.70;41.80;;;;;;6184371;23;20009;-72
2022/07/21 08:52:05;;;;;;;34.20;26.45;;;29.70;41.90;;;;;;6182126;23;20038;-72
2022/07/21 08:54:32;;;;;;;34.45;25.95;;;29.80;41.70;;;;;;6181994;23;20001;-72
2022/07/21 08:56:58;;;;;;;35.10;30.88;;;29.80;41.20;;;;;;6181284;23;20367;-73
2022/07/21 08:59:23;;;;;;;44.25;38.33;;;29.90;41.20;;;;;;6183863;23;20001;-72
2022/07/21 09:01:49;;;;;;;42.67;34.47;;;30.00;41.80;;;;;;6182858;23;20001;-72
2022/07/21 09:04:33;;;;;;;49.10;38.85;;;30.00;41.00;;;;;;6184864;23;20056;-71
2022/07/21 09:07:07;;;;;;;56.13;43.70;;;30.10;41.10;;;;;;6185057;23;20052;-72
2022/07/21 09:09:34;;;;;;;60.20;48.53;;;30.20;40.90;;;;;;6185048;23;20004;-73
2022/07/21 09:12:01;;;;;;;63.08;49.55;;;30.30;40.60;;;;;;6184585;23;20043;-72
2022/07/21 09:14:30;;;;;;;77.53;61.83;;;30.30;40.50;;;;;;6184722;23;20001;-75
2022/07/21 09:16:58;;;;;;;79.65;62.30;;;30.40;40.00;;;;;;6184971;23;20095;-71
2022/07/21 09:19:37;;;;;;;78.38;59.42;;;30.50;40.00;;;;;;6185055;23;20306;-72
2022/07/21 09:22:06;;;;;;;80.03;70.20;;;30.60;40.00;;;;;;6184850;23;20013;-72
2022/07/21 09:24:38;;;;;;;92.30;79.72;;;30.70;39.90;;;;;;6184770;23;19997;-72
2022/07/21 09:27:11;;;;;;;77.25;63.25;;;30.70;39.50;;;;;;6184868;23;20005;-77
2022/07/21 09:29:41;;;;;;;72.95;58.00;;;30.80;39.10;;;;;;6184938;23;20355;-74
2022/07/21 09:32:20;;;;;;;65.82;54.03;;;30.80;39.10;;;;;;6185017;23;20036;-72
2022/07/21 09:34:48;;;;;;;65.43;56.10;;;30.90;38.50;;;;;;6184946;23;20361;-72
2022/07/21 09:37:15;;;;;;;65.28;52.65;;;31.00;38.50;;;;;;6185141;23;20071;-72
2022/07/21 09:40:08;;;;;;;60.88;52.60;;;31.10;38.20;;;;;;6184423;23;20443;-72
2022/07/21 09:42:56;;;;;;;61.20;52.13;;;31.20;38.20;;;;;;6171545;23;20013;-71
2022/07/21 09:45:22;;;;;;;56.53;49.60;;;31.20;38.40;;;;;;6180302;23;20024;-72
2022/07/21 09:47:47;;;;;;;53.53;42.00;;;31.20;38.30;;;;;;6184404;23;20005;-72
2022/07/21 09:50:15;;;;;;;49.08;41.45;;;31.30;38.70;;;;;;6183421;23;20001;-70
2022/07/21 09:52:44;;;;;;;53.47;46.00;;;31.30;38.00;;;;;;6182921;23;20020;-71
2022/07/21 09:55:12;;;;;;;53.92;44.05;;;31.50;38.10;;;;;;6183385;23;19997;-71
2022/07/21 09:57:38;;;;;;;51.95;45.13;;;31.50;38.10;;;;;;6183285;23;20055;-70
2022/07/21 10:00:10;;;;;;;57.67;42.75;;;31.60;38.30;;;;;;6185590;23;20076;-71
2022/07/21 10:02:36;;;;;;;;;;;31.70;37.70;;;;;;6186893;23;20009;-71
2022/07/21 10:05:17;;;;;;;71.72;51.45;;;31.70;37.50;;;;;;6186425;23;20342;-71
2022/07/21 10:07:45;;;;;;;68.35;52.00;;;31.80;37.90;;;;;;6186510;23;20001;-70
2022/07/21 10:10:12;;;;;;;74.95;54.30;;;31.80;37.90;;;;;;6186506;23;20005;-72
2022/07/21 10:12:38;;;;;;;60.72;51.53;;;31.90;37.60;;;;;;6186395;23;20039;-71
2022/07/21 10:15:05;;;;;;;65.85;58.67;;;32.00;37.90;;;;;;6185990;23;20005;-71
2022/07/21 10:17:31;;;;;;;68.68;57.63;;;32.00;38.20;;;;;;6186032;23;20336;-71
2022/07/21 10:20:15;;;;;;;71.75;54.95;;;32.10;38.30;;;;;;6186642;23;20009;-71
2022/07/21 10:22:55;;;;;;;56.85;48.05;;;32.20;38.00;;;;;;6186776;23;20383;-71
2022/07/21 10:25:22;;;;;;;64.75;50.38;;;32.30;37.20;;;;;;6186384;23;20043;-67
2022/07/21 10:28:10;;;;;;;58.22;52.03;;;32.30;36.50;;;;;;6186397;23;20008;-68
2022/07/21 10:30:50;;;;;;;56.88;49.70;;;32.30;37.20;;;;;;6186821;23;20005;-69
2022/07/21 10:33:19;;;;;;;57.45;44.42;;;32.30;37.20;;;;;;6186348;23;20459;-67
2022/07/21 10:35:47;;;;;;;54.55;42.15;;;32.40;37.00;;;;;;6186490;23;20008;-67
2022/07/21 10:38:39;;;;;;;46.63;41.25;;;32.40;37.10;;;;;;6184833;23;20450;-68
2022/07/21 10:41:05;;;;;;;;;;;32.40;35.90;;;;;;6180582;23;20016;-68
2022/07/21 10:43:31;;;;;;;49.08;36.42;;;32.50;35.10;;;;;;6185632;23;20035;-68
2022/07/21 10:45:58;;;;;;;49.33;37.20;;;32.50;35.50;;;;;;6183993;23;20028;-67
2022/07/21 10:48:44;;;;;;;28.38;23.35;;;32.50;35.70;;;;;;6184008;23;20005;-68
2022/07/21 10:51:10;;;;;;;32.75;24.95;;;32.60;33.90;;;;;;6184560;23;20348;-67
2022/07/21 10:53:37;;;;;;;30.05;22.77;;;32.60;34.40;;;;;;6183380;23;19997;-69
2022/07/21 10:56:03;;;;;;;41.88;29.95;;;32.60;34.40;;;;;;6183759;23;20427;-67
2022/07/21 10:58:30;;;;;;;43.65;34.65;;;32.60;34.40;;;;;;6183695;23;20009;-67
2022/07/21 11:01:00;;;;;;;39.92;33.95;;;32.70;34.60;;;;;;6184213;23;20019;-67
2022/07/21 11:03:28;;;;;;;44.00;34.20;;;32.70;34.90;;;;;;6185170;23;20005;-68
2022/07/21 11:06:05;;;;;;;39.03;34.08;;;32.80;34.70;;;;;;6183567;23;20005;-67
2022/07/21 11:08:47;;;;;;;32.65;28.80;;;32.80;35.20;;;;;;6184393;23;20005;-67
2022/07/21 11:11:18;;;;;;;36.83;27.65;;;32.90;34.90;;;;;;6185871;23;20051;-67
2022/07/21 11:14:05;;;;;;;40.15;29.75;;;32.90;34.90;;;;;;6185238;23;20005;-68
2022/07/21 11:16:40;;;;;;;34.15;29.08;;;33.00;34.70;;;;;;6184378;23;20009;-67
2022/07/21 11:19:25;;;;;;;36.55;26.83;;;33.00;35.00;;;;;;6184368;23;20079;-67
2022/07/21 11:21:51;;;;;;;34.08;27.88;;;33.00;34.50;;;;;;6184541;23;20032;-67
2022/07/21 11:24:24;;;;;;;35.25;27.90;;;33.10;34.80;;;;;;6184951;23;20001;-67
2022/07/21 11:27:08;;;;;;;25.13;21.20;;;33.10;34.90;;;;;;6185537;23;20005;-67
2022/07/21 11:29:36;;;;;;;27.35;21.88;;;33.20;33.90;;;;;;6185768;23;20436;-66
2022/07/21 11:32:02;;;;;;;36.13;22.00;;;33.20;33.70;;;;;;6185230;23;20048;-67
2022/07/21 11:34:49;;;;;;;24.20;20.58;;;33.30;33.80;;;;;;6185966;23;20008;-67
2022/07/21 11:37:33;;;;;;;27.38;18.63;;;33.30;34.00;;;;;;6185898;23;20339;-67
2022/07/21 11:39:59;;;;;;;17.58;14.45;;;33.40;34.00;;;;;;6185737;23;20004;-68
2022/07/21 11:42:26;;;;;;;18.20;13.90;;;33.40;33.70;;;;;;6186039;23;20407;-67
2022/07/21 11:44:52;;;;;;;19.58;11.77;;;33.50;32.30;;;;;;6185379;23;20128;-67
2022/07/21 11:47:20;;;;;;;23.63;12.05;;;33.50;32.40;;;;;;6185268;23;20036;-67
2022/07/21 11:49:46;;;;;;;13.80;11.43;;;33.50;32.30;;;;;;6184689;23;19997;-67
2022/07/21 11:52:17;;;;;;;19.15;12.32;;;33.60;32.60;;;;;;6185481;23;20347;-67
2022/07/21 11:54:48;;;;;;;22.65;13.13;;;33.70;33.10;;;;;;6184232;23;20001;-66
2022/07/21 11:57:16;;;;;;;18.13;12.98;;;33.70;32.80;;;;;;6181428;23;20032;-67
2022/07/21 11:59:43;;;;;;;19.73;13.15;;;33.70;32.80;;;;;;6182373;23;20025;-67
2022/07/21 12:02:11;;;;;;;18.25;12.43;;;33.80;32.90;;;;;;6183878;23;20005;-69
2022/07/21 12:04:42;;;;;;;28.98;12.40;;;33.80;33.00;;;;;;6185605;23;20031;-67
2022/07/21 12:07:30;;;;;;;21.00;11.37;;;33.80;33.40;;;;;;6185108;23;20379;-67
2022/07/21 12:10:09;;;;;;;25.23;11.43;;;33.80;32.60;;;;;;6185476;23;20013;-67
2022/07/21 12:12:43;;;;;;;10.93;9.60;;;33.90;32.90;;;;;;6185467;23;20017;-66
2022/07/21 12:15:15;;;;;;;10.48;9.27;;;33.90;32.70;;;;;;6185493;23;20035;-66
2022/07/21 12:17:47;;;;;;;13.85;9.88;;;33.90;32.70;;;;;;6185254;23;20005;-66
2022/07/21 12:20:15;;;;;;;20.17;9.98;;;33.90;32.30;;;;;;6185097;23;20005;-67
2022/07/21 12:22:49;;;;;;;15.57;10.38;;;34.00;32.20;;;;;;6185129;23;20009;-67
2022/07/21 12:25:17;;;;;;;12.90;11.18;;;34.10;32.30;;;;;;6185271;23;19997;-66
2022/07/21 12:27:45;;;;;;;15.23;11.23;;;34.10;31.60;;;;;;6185554;23;20001;-66
2022/07/21 12:30:51;;;;;;;15.43;13.80;;;34.10;32.20;;;;;;6185402;23;20347;-66
2022/07/21 12:33:28;;;;;;;16.20;13.57;;;34.20;32.00;;;;;;6185247;23;20019;-68
2022/07/21 12:36:03;;;;;;;23.23;15.45;;;34.20;32.10;;;;;;6185360;23;20016;-68